Hovedside
METAR-TAF:

METAR-TAF

Lufthavner :

Växjö, Sverige

Växjö lufthavn

breddegrad: 56-51N, lengdegrad: 014-50E, høyde over havet: 199 m

Gjeldene værobservasjon

Denne rapporten ble laget for 36 minutter siden, klokken 09:50 UTC
Vind 10 kt fra Sør-sørvest
Temperatur 12°C
Luftfuktighet 94%
Trykk 1000 hPa
Sikt 10 km eller mer

METAR: ESMX 250950Z AUTO 20010KT 9999 OVC062/// 12/11 Q1000 RERA

Tid: 12:26 (10:26 UTC)


TAF: fraværende

Værobservasjoner og værvarsel for over 4000 flyplasser (METAR- og TAF-rapporter).

Tilgjengelige stasjoner er representert av de røde og gule prikkene på kartet.

Hold musepekeren over prikken for å se navnet på stasjonen.

Klikk så for å se værobservasjoner og -varsler.

For å forandre kartet kan du klikke på den grønne knappen med svart kryss for å zoome inn, på den grønne knappen med strek for å zoome ut, eller på de grønne pilene for å se tilstøtende kart.


METAR-TAF: